Time;durP1;ratioP1;P1;durP2;ratioP2;P2;SDS_P1;SDS_P2;PMS_P1;PMS_P2;Temp;Humidity;BMP_temperature;BMP_pressure;BME280_temperature;BME280_humidity;BME280_pressure;Samples;Min_cycle;Max_cycle;Signal;HPM_P1;HPM_P2
2022/01/29 00:01:12;;;;;;;67.17;40.70;;;7.00;99.90;;;;;;5053005;28;20037;-59
2022/01/29 00:03:38;;;;;;;61.67;39.67;;;7.00;99.90;;;;;;5052713;28;20177;-57
2022/01/29 00:06:04;;;;;;;70.23;42.30;;;7.00;99.90;;;;;;5052530;28;20059;-58
2022/01/29 00:08:31;;;;;;;69.25;41.08;;;7.00;99.90;;;;;;5050964;28;20114;-59
2022/01/29 00:11:06;;;;;;;69.25;42.25;;;7.00;99.90;;;;;;5052792;28;20080;-56
2022/01/29 00:13:32;;;;;;;67.60;41.70;;;7.00;99.90;;;;;;5052318;28;20036;-58
2022/01/29 00:15:57;;;;;;;70.77;43.20;;;7.10;99.90;;;;;;5051960;28;20559;-59
2022/01/29 00:18:23;;;;;;;68.90;43.10;;;7.10;99.90;;;;;;5052478;28;20056;-59
2022/01/29 00:20:48;;;;;;;71.90;43.30;;;7.10;99.90;;;;;;5052050;28;20540;-59
2022/01/29 00:23:14;;;;;;;66.97;42.33;;;7.10;99.90;;;;;;5051963;28;20505;-61
2022/01/29 00:25:39;;;;;;;69.63;43.47;;;7.10;99.90;;;;;;5051718;28;20612;-58
2022/01/29 00:28:05;;;;;;;70.47;44.47;;;7.10;99.90;;;;;;5052306;28;20076;-59
2022/01/29 00:30:37;;;;;;;67.17;39.93;;;7.10;99.90;;;;;;5052000;28;20041;-59
2022/01/29 00:33:03;;;;;;;70.75;41.95;;;7.10;99.90;;;;;;5052666;28;20029;-57
2022/01/29 00:35:28;;;;;;;66.03;43.37;;;7.10;99.90;;;;;;5052407;28;20040;-59
2022/01/29 00:37:54;;;;;;;73.10;43.50;;;7.20;99.90;;;;;;5052459;28;20033;-56
2022/01/29 00:40:21;;;;;;;72.77;42.17;;;7.10;99.90;;;;;;5052715;28;20036;-58
2022/01/29 00:42:48;;;;;;;65.75;41.13;;;7.10;99.90;;;;;;5052085;28;20516;-60
2022/01/29 00:45:13;;;;;;;;;;;7.10;99.90;;;;;;5051540;28;20528;-58
2022/01/29 00:47:39;;;;;;;65.72;38.80;;;7.10;99.90;;;;;;5051916;28;20007;-60
2022/01/29 00:50:05;;;;;;;67.50;45.03;;;7.10;99.90;;;;;;5052483;28;20041;-59
2022/01/29 00:52:30;;;;;;;77.65;42.17;;;7.10;99.90;;;;;;5051787;28;20041;-58
2022/01/29 00:54:56;;;;;;;68.17;41.57;;;7.00;99.90;;;;;;5051504;28;20045;-58
2022/01/29 00:57:22;;;;;;;68.67;43.53;;;7.00;99.90;;;;;;5051207;28;20037;-57
2022/01/29 00:59:47;;;;;;;67.03;39.55;;;7.00;99.90;;;;;;5051627;28;20032;-60
2022/01/29 01:02:13;;;;;;;69.07;40.23;;;7.00;99.90;;;;;;5051377;28;20502;-60
2022/01/29 01:04:39;;;;;;;72.30;43.92;;;7.00;99.90;;;;;;5051055;28;20417;-58
2022/01/29 01:07:09;;;;;;;68.53;44.80;;;6.90;99.90;;;;;;5051740;28;20044;-59
2022/01/29 01:09:34;;;;;;;75.88;45.13;;;6.90;99.90;;;;;;5051113;28;20116;-58
2022/01/29 01:12:01;;;;;;;65.63;43.78;;;6.90;99.90;;;;;;5051354;28;20116;-59
2022/01/29 01:14:26;;;;;;;82.25;46.92;;;6.90;99.90;;;;;;5054240;28;20044;-59
2022/01/29 01:16:52;;;;;;;64.27;40.70;;;6.90;99.90;;;;;;5055944;28;20460;-56
2022/01/29 01:19:17;;;;;;;74.77;45.07;;;6.80;99.90;;;;;;5054819;28;20082;-55
2022/01/29 01:21:43;;;;;;;75.60;45.27;;;6.80;99.90;;;;;;5051125;28;20509;-57
2022/01/29 01:24:09;;;;;;;81.43;46.83;;;6.90;99.90;;;;;;5050453;28;20287;-56
2022/01/29 01:26:34;;;;;;;75.63;46.27;;;6.80;99.90;;;;;;5051072;28;20344;-56
2022/01/29 01:29:00;;;;;;;83.00;47.97;;;6.70;99.90;;;;;;5051074;28;20060;-58
2022/01/29 01:31:26;;;;;;;78.63;45.72;;;6.70;99.90;;;;;;5050473;28;20391;-57
2022/01/29 01:33:52;;;;;;;71.93;44.00;;;6.70;99.90;;;;;;5051466;28;20033;-57
2022/01/29 01:36:21;;;;;;;73.10;42.80;;;6.70;99.90;;;;;;5050125;28;20120;-58
2022/01/29 01:38:52;;;;;;;83.25;47.67;;;6.70;99.90;;;;;;5049728;28;20037;-56
2022/01/29 01:41:21;;;;;;;74.65;46.00;;;6.70;99.90;;;;;;5050745;28;20478;-59
2022/01/29 01:43:47;;;;;;;70.85;44.15;;;6.80;99.90;;;;;;5049521;28;20037;-55
2022/01/29 01:46:13;;;;;;;75.70;45.07;;;6.70;99.90;;;;;;5050571;28;20036;-57
2022/01/29 01:48:38;;;;;;;63.03;39.87;;;6.80;99.90;;;;;;5051069;28;20052;-59
2022/01/29 01:51:05;;;;;;;74.25;41.83;;;6.80;99.90;;;;;;5050564;28;20283;-60
2022/01/29 01:53:30;;;;;;;75.32;44.38;;;6.80;99.90;;;;;;5049400;28;20048;-59
2022/01/29 01:55:56;;;;;;;70.80;42.87;;;6.80;99.90;;;;;;5049942;28;20132;-59
2022/01/29 01:58:22;;;;;;;63.27;38.97;;;6.80;99.90;;;;;;5050815;28;20490;-60
2022/01/29 02:00:47;;;;;;;69.67;40.80;;;6.80;99.90;;;;;;5050488;28;20044;-58
2022/01/29 02:03:13;;;;;;;67.40;40.23;;;6.80;99.90;;;;;;5050024;28;20120;-59
2022/01/29 02:05:38;;;;;;;59.37;36.07;;;6.90;99.90;;;;;;5050534;28;20052;-58
2022/01/29 02:08:06;;;;;;;60.40;38.27;;;6.90;99.90;;;;;;5050155;28;20040;-58
2022/01/29 02:10:31;;;;;;;58.75;37.08;;;6.90;99.90;;;;;;5050334;28;20554;-60
2022/01/29 02:13:02;;;;;;;63.67;36.80;;;6.80;99.90;;;;;;5049938;28;20065;-58
2022/01/29 02:15:29;;;;;;;74.13;40.15;;;6.90;99.90;;;;;;5050280;28;20037;-59
2022/01/29 02:17:55;;;;;;;;;;;6.90;99.90;;;;;;5050642;28;20037;-59
2022/01/29 02:20:28;;;;;;;57.72;33.83;;;6.90;99.90;;;;;;5049827;28;19935;-60
2022/01/29 02:22:54;;;;;;;69.78;37.03;;;6.90;99.90;;;;;;5050756;28;20102;-59
2022/01/29 02:25:39;;;;;;;65.47;37.30;;;6.90;99.90;;;;;;5049681;28;20497;-60
2022/01/29 02:28:13;;;;;;;58.15;35.58;;;6.90;99.90;;;;;;5050592;28;20064;-60
2022/01/29 02:30:42;;;;;;;66.57;38.67;;;6.90;99.90;;;;;;5050119;28;20048;-60
2022/01/29 02:33:12;;;;;;;62.95;37.22;;;6.90;99.90;;;;;;5030478;28;20073;-59
2022/01/29 02:35:49;;;;;;;64.38;36.92;;;6.90;99.90;;;;;;5044195;28;20564;-60
2022/01/29 02:38:16;;;;;;;;;;;6.90;99.90;;;;;;5050664;28;20514;-59
2022/01/29 02:40:57;;;;;;;59.38;33.97;;;6.90;99.90;;;;;;5050285;28;19962;-59
2022/01/29 02:43:27;;;;;;;67.45;36.88;;;7.00;99.90;;;;;;5049884;28;20041;-59
2022/01/29 02:45:53;;;;;;;58.67;34.28;;;7.00;99.90;;;;;;5050115;28;20040;-61
2022/01/29 02:48:20;;;;;;;66.07;34.10;;;7.00;99.90;;;;;;5049935;28;20044;-60
2022/01/29 02:50:46;;;;;;;60.03;35.03;;;7.00;99.90;;;;;;5050049;28;20490;-57
2022/01/29 02:53:13;;;;;;;61.30;36.65;;;7.00;99.90;;;;;;5049508;28;20033;-59
2022/01/29 02:55:39;;;;;;;67.95;36.80;;;7.00;99.90;;;;;;5049849;28;20040;-60
2022/01/29 02:58:04;;;;;;;65.00;37.58;;;7.10;99.90;;;;;;5049237;28;20041;-59
2022/01/29 03:00:30;;;;;;;58.10;33.70;;;7.00;99.90;;;;;;5049988;28;20052;-59
2022/01/29 03:02:56;;;;;;;69.32;36.33;;;7.00;99.90;;;;;;5049662;28;20375;-57
2022/01/29 03:05:22;;;;;;;68.85;36.30;;;7.10;99.90;;;;;;5049650;28;20029;-59
2022/01/29 03:07:48;;;;;;;62.05;35.58;;;7.10;99.90;;;;;;5050402;28;20146;-58
2022/01/29 03:10:14;;;;;;;64.78;38.03;;;7.10;99.90;;;;;;5053213;28;20516;-58
2022/01/29 03:12:41;;;;;;;61.53;34.75;;;7.10;99.90;;;;;;5053159;28;20045;-58
2022/01/29 03:15:11;;;;;;;60.92;34.22;;;7.10;99.90;;;;;;5053724;28;20045;-55
2022/01/29 03:17:37;;;;;;;60.25;33.47;;;7.10;99.90;;;;;;5053356;28;20500;-58
2022/01/29 03:20:03;;;;;;;62.20;35.45;;;7.10;99.90;;;;;;5053230;28;20056;-58
2022/01/29 03:22:29;;;;;;;67.43;35.63;;;7.20;99.90;;;;;;5053429;28;20064;-59
2022/01/29 03:24:55;;;;;;;69.83;35.83;;;7.10;99.90;;;;;;5052935;28;20041;-59
2022/01/29 03:27:20;;;;;;;54.42;33.00;;;7.20;99.90;;;;;;5053061;28;20045;-58
2022/01/29 03:29:46;;;;;;;53.80;33.67;;;7.20;99.90;;;;;;5053322;28;20045;-60
2022/01/29 03:32:11;;;;;;;61.30;32.90;;;7.20;99.90;;;;;;5053842;28;20124;-60
2022/01/29 03:34:37;;;;;;;63.33;34.13;;;7.20;99.90;;;;;;5053187;28;20041;-57
2022/01/29 03:37:04;;;;;;;60.37;34.40;;;7.20;99.90;;;;;;5053521;28;20047;-58
2022/01/29 03:39:30;;;;;;;58.50;34.15;;;7.20;99.90;;;;;;5051295;28;20547;-59
2022/01/29 03:42:01;;;;;;;59.75;34.08;;;7.20;99.90;;;;;;5052816;28;20405;-58
2022/01/29 03:44:27;;;;;;;56.72;33.03;;;7.20;99.90;;;;;;5053230;28;20124;-57
2022/01/29 03:46:52;;;;;;;53.37;32.07;;;7.20;99.90;;;;;;5053307;28;20120;-58
2022/01/29 03:49:18;;;;;;;52.47;32.73;;;7.30;99.90;;;;;;5053049;28;20045;-59
2022/01/29 03:51:44;;;;;;;52.87;30.63;;;7.30;99.90;;;;;;5052832;28;20044;-59
2022/01/29 03:54:09;;;;;;;53.43;31.90;;;7.30;99.90;;;;;;5052282;28;20099;-58
2022/01/29 03:56:35;;;;;;;55.30;33.20;;;7.30;99.90;;;;;;5052749;28;20048;-56
2022/01/29 03:59:00;;;;;;;51.90;32.60;;;7.30;99.90;;;;;;5050620;28;20091;-60
2022/01/29 04:01:26;;;;;;;57.83;34.23;;;7.30;99.90;;;;;;5051960;28;20025;-59
2022/01/29 04:03:51;;;;;;;62.00;33.80;;;7.30;99.90;;;;;;5051641;28;20070;-57
2022/01/29 04:06:17;;;;;;;60.63;33.63;;;7.30;99.90;;;;;;5052753;28;20098;-58
2022/01/29 04:08:43;;;;;;;54.70;33.73;;;7.30;99.90;;;;;;5052088;28;20037;-60
2022/01/29 04:11:11;;;;;;;;;;;7.30;99.90;;;;;;5053661;28;20052;-59
2022/01/29 04:13:40;;;;;;;64.68;32.05;;;7.40;99.90;;;;;;5057211;28;19924;-55
2022/01/29 04:16:06;;;;;;;62.58;34.08;;;7.30;99.90;;;;;;5059056;28;20063;-59
2022/01/29 04:18:31;;;;;;;70.15;35.00;;;7.40;99.90;;;;;;5054359;28;20037;-56
2022/01/29 04:20:57;;;;;;;63.07;35.37;;;7.40;99.90;;;;;;5052116;28;20040;-57
2022/01/29 04:23:22;;;;;;;72.07;37.67;;;7.40;99.90;;;;;;5052082;28;20119;-54
2022/01/29 04:25:52;;;;;;;67.47;34.60;;;7.40;99.90;;;;;;5052356;28;20037;-58
2022/01/29 04:28:22;;;;;;;67.82;35.72;;;7.40;99.90;;;;;;5052964;28;20086;-55
2022/01/29 04:30:53;;;;;;;67.78;37.10;;;7.40;99.90;;;;;;5051955;28;20530;-57
2022/01/29 04:35:45;;;;;;;67.43;34.23;;;7.40;99.90;;;;;;5051686;28;20514;-58
2022/01/29 04:38:11;;;;;;;72.80;37.47;;;7.40;99.90;;;;;;5052852;28;20099;-57
2022/01/29 04:40:37;;;;;;;65.93;35.03;;;7.50;99.90;;;;;;5052159;28;20037;-59
2022/01/29 04:43:04;;;;;;;68.32;36.42;;;7.50;99.90;;;;;;5051823;28;20501;-57
2022/01/29 04:45:30;;;;;;;65.75;35.97;;;7.50;99.90;;;;;;5052446;28;20297;-57
2022/01/29 04:47:55;;;;;;;76.18;37.05;;;7.50;99.90;;;;;;5052117;28;20041;-54
2022/01/29 04:50:21;;;;;;;73.28;37.63;;;7.50;99.90;;;;;;5051619;28;20037;-59
2022/01/29 04:52:46;;;;;;;72.67;35.47;;;7.60;99.90;;;;;;5052360;28;20076;-58
2022/01/29 04:55:12;;;;;;;78.97;40.10;;;7.60;99.90;;;;;;5051888;28;20052;-59
2022/01/29 04:57:39;;;;;;;71.97;35.90;;;7.60;99.90;;;;;;5051516;28;20091;-58
2022/01/29 05:00:09;;;;;;;65.43;37.53;;;7.60;99.90;;;;;;5051318;28;20045;-56
2022/01/29 05:02:35;;;;;;;64.38;35.55;;;7.60;99.90;;;;;;5052453;28;20056;-59
2022/01/29 05:05:01;;;;;;;74.95;36.25;;;7.60;99.90;;;;;;5050926;28;20033;-58
2022/01/29 05:07:27;;;;;;;65.78;36.95;;;7.60;99.90;;;;;;5051979;28;20119;-59
2022/01/29 05:09:52;;;;;;;67.57;36.90;;;7.60;99.90;;;;;;5051034;28;20123;-59
2022/01/29 05:12:24;;;;;;;73.03;36.83;;;7.60;99.90;;;;;;5051455;28;20106;-58
2022/01/29 05:28:06;;;;;;;57.13;34.38;;;7.70;99.90;;;;;;5066466;28;20041;-59
2022/01/29 05:30:31;;;;;;;58.07;33.23;;;7.70;99.90;;;;;;5050518;28;20413;-57
2022/01/29 05:32:57;;;;;;;60.97;33.17;;;7.70;99.90;;;;;;5050901;28;20076;-59
2022/01/29 05:35:22;;;;;;;52.33;33.27;;;7.70;99.90;;;;;;5050627;28;20041;-59
2022/01/29 05:37:50;;;;;;;60.90;32.87;;;7.70;99.90;;;;;;5051471;28;20446;-59
2022/01/29 05:40:17;;;;;;;52.17;30.95;;;7.70;99.90;;;;;;5049089;28;20045;-60
2022/01/29 05:42:42;;;;;;;52.35;31.25;;;7.70;99.90;;;;;;5050778;28;20052;-59
2022/01/29 05:45:08;;;;;;;48.50;31.47;;;7.80;99.90;;;;;;5050738;28;20485;-59
2022/01/29 05:47:35;;;;;;;55.15;32.28;;;7.80;99.90;;;;;;5051270;28;20055;-60
2022/01/29 05:50:01;;;;;;;46.35;27.95;;;7.80;99.90;;;;;;5051026;28;20428;-58
2022/01/29 05:52:27;;;;;;;55.60;29.75;;;7.90;99.90;;;;;;5050904;28;20048;-59
2022/01/29 05:54:52;;;;;;;54.00;29.07;;;7.90;99.90;;;;;;5050396;28;20032;-60
2022/01/29 05:57:18;;;;;;;50.33;29.10;;;7.90;99.90;;;;;;5051263;28;20041;-60
2022/01/29 05:59:43;;;;;;;56.37;30.17;;;7.90;99.90;;;;;;5050871;28;20399;-59
2022/01/29 06:02:09;;;;;;;46.20;28.43;;;7.90;99.90;;;;;;5050895;28;20418;-59
2022/01/29 06:04:35;;;;;;;43.87;27.10;;;8.00;99.90;;;;;;5050504;28;20498;-56
2022/01/29 06:07:00;;;;;;;49.93;27.80;;;8.00;99.90;;;;;;5050651;28;20498;-59
2022/01/29 06:09:26;;;;;;;45.13;26.53;;;8.10;99.90;;;;;;5050141;28;20059;-58
2022/01/29 06:11:51;;;;;;;42.57;25.57;;;8.10;99.90;;;;;;5050290;28;20040;-58
2022/01/29 06:14:17;;;;;;;43.63;25.93;;;8.10;99.90;;;;;;5049930;28;20494;-59
2022/01/29 06:16:42;;;;;;;44.30;26.53;;;8.10;99.90;;;;;;5048650;28;20073;-59
2022/01/29 06:19:08;;;;;;;41.43;24.93;;;8.20;99.90;;;;;;5049619;28;20241;-60
2022/01/29 06:21:33;;;;;;;41.10;25.43;;;8.20;99.90;;;;;;5037497;28;20032;-58
2022/01/29 06:24:00;;;;;;;38.73;23.47;;;8.20;99.90;;;;;;5049701;28;20029;-58
2022/01/29 06:26:25;;;;;;;42.03;24.52;;;8.20;99.90;;;;;;5049749;28;20047;-59
2022/01/29 06:28:51;;;;;;;42.37;23.33;;;8.20;99.90;;;;;;5050667;28;20393;-59
2022/01/29 06:31:18;;;;;;;32.47;22.33;;;8.30;99.90;;;;;;5049908;28;20287;-59
2022/01/29 06:33:43;;;;;;;42.05;23.98;;;8.30;99.90;;;;;;5050335;28;20279;-58
2022/01/29 06:36:10;;;;;;;40.23;24.00;;;8.30;99.90;;;;;;5050324;28;20131;-58
2022/01/29 06:38:36;;;;;;;38.80;24.50;;;8.30;99.90;;;;;;5049899;28;20555;-59
2022/01/29 06:41:02;;;;;;;43.33;23.33;;;8.30;99.90;;;;;;5049564;28;20545;-61
2022/01/29 06:43:28;;;;;;;50.83;24.88;;;8.40;99.90;;;;;;5049535;28;20520;-59
2022/01/29 06:45:54;;;;;;;42.25;24.50;;;8.30;99.90;;;;;;5049808;28;20135;-59
2022/01/29 06:48:20;;;;;;;35.60;21.85;;;8.30;99.90;;;;;;5050323;28;20128;-59
2022/01/29 06:50:46;;;;;;;40.40;21.37;;;8.40;99.90;;;;;;5050004;28;20120;-58
2022/01/29 06:53:12;;;;;;;40.45;21.60;;;8.30;99.90;;;;;;5049742;28;20033;-60
2022/01/29 06:55:37;;;;;;;33.25;18.80;;;8.40;99.90;;;;;;5050019;28;20041;-59
2022/01/29 06:58:03;;;;;;;41.47;22.20;;;8.40;99.90;;;;;;5049702;28;20045;-59
2022/01/29 07:00:29;;;;;;;32.47;20.27;;;8.40;99.90;;;;;;5049907;28;20482;-58
2022/01/29 07:02:55;;;;;;;29.55;19.15;;;8.40;99.90;;;;;;5049808;28;20502;-58
2022/01/29 07:05:20;;;;;;;33.93;20.00;;;8.40;99.90;;;;;;5049207;28;20047;-58
2022/01/29 07:07:46;;;;;;;33.83;20.73;;;8.40;99.90;;;;;;5049696;28;20083;-59
2022/01/29 07:10:12;;;;;;;29.40;18.03;;;8.50;99.90;;;;;;5050512;28;20303;-57
2022/01/29 07:12:38;;;;;;;26.50;18.00;;;8.40;99.90;;;;;;5056515;28;20071;-59
2022/01/29 07:15:05;;;;;;;;;;;8.50;99.90;;;;;;5054297;28;20037;-58
2022/01/29 07:17:30;;;;;;;36.70;20.48;;;8.50;99.90;;;;;;5049412;28;19928;-59
2022/01/29 07:19:56;;;;;;;27.83;17.33;;;8.50;99.90;;;;;;5049333;28;20041;-58
2022/01/29 07:22:21;;;;;;;33.97;17.60;;;8.50;99.90;;;;;;5049292;28;20032;-56
2022/01/29 07:24:47;;;;;;;32.93;19.23;;;8.60;99.90;;;;;;5049119;28;20079;-58
2022/01/29 07:27:13;;;;;;;32.13;18.63;;;8.60;99.90;;;;;;5064976;28;20037;-60
2022/01/29 07:29:38;;;;;;;31.70;18.23;;;8.50;99.90;;;;;;5049417;28;20119;-60
2022/01/29 07:32:05;;;;;;;25.63;16.53;;;8.50;99.90;;;;;;5049612;28;20059;-55
2022/01/29 07:34:31;;;;;;;25.50;18.23;;;8.60;99.90;;;;;;5048316;28;20248;-59
2022/01/29 07:36:57;;;;;;;34.58;18.65;;;8.60;99.90;;;;;;5048779;28;20045;-56
2022/01/29 07:39:24;;;;;;;29.83;16.33;;;8.60;99.90;;;;;;5049363;28;20395;-57
2022/01/29 07:41:50;;;;;;;27.08;15.73;;;8.60;99.90;;;;;;5049120;28;20037;-56
2022/01/29 07:44:16;;;;;;;30.33;16.23;;;8.60;99.90;;;;;;5048442;28;20037;-59
2022/01/29 07:46:42;;;;;;;28.63;16.35;;;8.60;99.90;;;;;;5048550;28;20037;-58
2022/01/29 07:49:08;;;;;;;24.52;15.40;;;8.60;99.90;;;;;;5049139;28;20045;-57
2022/01/29 07:51:35;;;;;;;22.77;15.63;;;8.60;99.90;;;;;;5048931;28;20506;-57
2022/01/29 07:54:00;;;;;;;24.67;16.08;;;8.60;99.90;;;;;;5049959;28;20047;-59
2022/01/29 07:56:26;;;;;;;28.83;16.87;;;8.70;99.90;;;;;;5052927;28;20041;-59
2022/01/29 07:58:52;;;;;;;29.57;17.53;;;8.60;99.90;;;;;;5068006;28;20040;-58
2022/01/29 08:01:18;;;;;;;27.00;16.95;;;8.70;99.90;;;;;;5052804;28;20041;-58
2022/01/29 08:03:48;;;;;;;31.88;15.60;;;8.60;99.90;;;;;;5052860;28;20043;-59
2022/01/29 08:06:14;;;;;;;36.45;17.42;;;8.60;99.90;;;;;;5051086;28;20041;-60
2022/01/29 08:08:40;;;;;;;23.35;16.77;;;8.70;99.90;;;;;;5048151;28;20068;-59
2022/01/29 08:11:07;;;;;;;25.63;16.08;;;8.70;99.90;;;;;;5052416;28;20099;-59
2022/01/29 08:13:33;;;;;;;27.83;16.48;;;8.70;99.90;;;;;;5039530;28;20041;-60
2022/01/29 08:15:59;;;;;;;27.38;16.83;;;8.60;99.90;;;;;;5051964;28;20567;-60
2022/01/29 08:18:24;;;;;;;25.03;16.33;;;8.70;99.90;;;;;;5052824;28;20025;-59
2022/01/29 08:20:50;;;;;;;28.50;17.67;;;8.70;99.90;;;;;;5042841;28;20121;-59
2022/01/29 08:23:15;;;;;;;25.03;15.37;;;8.60;99.90;;;;;;5047290;28;20056;-58
2022/01/29 08:25:41;;;;;;;32.30;16.67;;;8.70;99.90;;;;;;5052272;28;20037;-60
2022/01/29 08:28:07;;;;;;;24.55;15.90;;;8.70;99.90;;;;;;5052562;28;20048;-59
2022/01/29 08:30:32;;;;;;;28.03;16.70;;;8.70;99.90;;;;;;5052071;28;20037;-60
2022/01/29 08:32:59;;;;;;;24.90;14.37;;;8.70;99.90;;;;;;5052703;28;20521;-60
2022/01/29 08:35:25;;;;;;;29.35;17.40;;;8.70;99.90;;;;;;5051592;28;20060;-59
2022/01/29 08:37:51;;;;;;;25.60;15.93;;;8.70;99.90;;;;;;5051251;28;20041;-58
2022/01/29 08:40:16;;;;;;;26.30;14.77;;;8.70;99.90;;;;;;5051520;28;20529;-59
2022/01/29 08:42:42;;;;;;;26.17;15.43;;;8.70;99.90;;;;;;5052156;28;20278;-58
2022/01/29 08:45:09;;;;;;;25.27;14.98;;;8.80;99.90;;;;;;5051707;28;20076;-59
2022/01/29 08:47:35;;;;;;;22.95;13.43;;;8.80;99.90;;;;;;5052165;28;20037;-60
2022/01/29 08:50:03;;;;;;;23.83;13.07;;;8.90;99.90;;;;;;5050296;28;20044;-60
2022/01/29 08:52:29;;;;;;;19.95;12.85;;;8.80;99.90;;;;;;5052265;28;20395;-60
2022/01/29 08:54:55;;;;;;;23.25;14.10;;;8.90;99.90;;;;;;5051844;28;20033;-60
2022/01/29 08:57:20;;;;;;;29.13;13.73;;;8.90;99.90;;;;;;5052044;28;20055;-60
2022/01/29 08:59:46;;;;;;;22.83;12.50;;;8.90;99.90;;;;;;5051372;28;20324;-59
2022/01/29 09:02:11;;;;;;;22.37;13.37;;;8.90;99.90;;;;;;5032187;28;20136;-60
2022/01/29 09:04:37;;;;;;;23.57;13.33;;;8.90;99.90;;;;;;5047582;28;20041;-60
2022/01/29 09:07:03;;;;;;;15.33;10.97;;;9.00;99.90;;;;;;5049399;28;20063;-60
2022/01/29 09:09:28;;;;;;;19.73;13.18;;;9.00;99.90;;;;;;5052182;28;20064;-58
2022/01/29 09:11:54;;;;;;;22.00;11.23;;;9.00;99.90;;;;;;5051613;28;20059;-61
2022/01/29 09:14:20;;;;;;;25.67;12.40;;;9.00;99.90;;;;;;5051807;28;20094;-61
2022/01/29 09:16:46;;;;;;;;;;;9.10;99.90;;;;;;5051914;28;20299;-61
2022/01/29 09:19:12;;;;;;;19.55;12.98;;;9.10;99.90;;;;;;5050999;28;19917;-60
2022/01/29 09:21:38;;;;;;;23.25;12.15;;;9.10;99.90;;;;;;5051470;28;20045;-60
2022/01/29 09:24:04;;;;;;;20.33;11.25;;;9.10;99.90;;;;;;5051006;28;20479;-59
2022/01/29 09:26:30;;;;;;;23.27;13.27;;;9.10;99.90;;;;;;5051510;28;20124;-58
2022/01/29 09:28:56;;;;;;;15.82;12.13;;;9.10;99.90;;;;;;5051040;28;20120;-58
2022/01/29 09:31:21;;;;;;;17.70;11.40;;;9.10;99.90;;;;;;5051145;28;20162;-58
2022/01/29 09:33:48;;;;;;;22.75;12.13;;;9.10;99.90;;;;;;5051251;28;20041;-59
2022/01/29 09:36:14;;;;;;;20.73;12.02;;;9.10;99.90;;;;;;5051210;28;20037;-59
2022/01/29 09:38:40;;;;;;;18.75;11.95;;;9.20;99.90;;;;;;5050251;28;20029;-59
2022/01/29 09:41:07;;;;;;;12.98;10.93;;;9.20;99.90;;;;;;5050815;28;20044;-59
2022/01/29 09:43:33;;;;;;;15.65;11.15;;;9.20;99.90;;;;;;5050757;28;20402;-60
2022/01/29 09:45:59;;;;;;;18.20;11.43;;;9.20;99.90;;;;;;5049855;28;20045;-60
2022/01/29 09:48:30;;;;;;;13.23;10.38;;;9.20;99.90;;;;;;5050497;28;20036;-57
2022/01/29 09:50:57;;;;;;;15.20;10.60;;;9.20;99.90;;;;;;5050883;28;20063;-57
2022/01/29 09:53:23;;;;;;;12.63;10.20;;;9.20;99.90;;;;;;5050524;28;20118;-56
2022/01/29 09:55:48;;;;;;;14.93;9.87;;;9.30;99.90;;;;;;5049597;28;20168;-56
2022/01/29 09:58:14;;;;;;;19.08;9.70;;;9.30;99.90;;;;;;5050480;28;20382;-56
2022/01/29 10:00:40;;;;;;;15.02;10.02;;;9.30;99.90;;;;;;5053174;28;20037;-57
2022/01/29 10:03:11;;;;;;;13.05;8.88;;;9.40;99.90;;;;;;5050306;28;20033;-58
2022/01/29 10:05:42;;;;;;;19.77;9.00;;;9.40;99.90;;;;;;5049136;28;20064;-57
2022/01/29 10:08:09;;;;;;;10.82;8.85;;;9.40;99.90;;;;;;5050378;28;20063;-57
2022/01/29 10:10:41;;;;;;;;;;;9.50;99.90;;;;;;5051017;28;20045;-57
2022/01/29 10:13:31;;;;;;;12.45;8.00;;;9.50;99.90;;;;;;5049947;28;19923;-55
2022/01/29 10:16:19;;;;;;;13.80;8.95;;;9.60;99.90;;;;;;5050614;28;20048;-55
2022/01/29 10:19:06;;;;;;;12.50;8.40;;;9.60;99.90;;;;;;5049953;28;20045;-57
2022/01/29 10:21:32;;;;;;;9.90;6.60;;;9.60;99.90;;;;;;5046178;28;20094;-57
2022/01/29 10:24:05;;;;;;;14.73;8.25;;;9.60;99.90;;;;;;5049740;28;20072;-57
2022/01/29 10:26:39;;;;;;;14.48;7.78;;;9.70;99.90;;;;;;5047137;28;20128;-57
2022/01/29 10:29:07;;;;;;;12.07;6.43;;;9.70;99.90;;;;;;5047255;28;20496;-56
2022/01/29 10:31:50;;;;;;;19.63;8.07;;;9.70;99.90;;;;;;5065086;28;20044;-57
2022/01/29 10:34:25;;;;;;;11.50;6.75;;;9.80;99.90;;;;;;5049580;28;20041;-58
2022/01/29 10:37:12;;;;;;;10.93;6.30;;;9.80;99.90;;;;;;5036800;28;20079;-56
2022/01/29 10:39:39;;;;;;;11.05;7.22;;;9.80;99.90;;;;;;5049825;28;20502;-56
2022/01/29 10:42:19;;;;;;;11.95;5.78;;;9.80;99.90;;;;;;5044595;28;20728;-58
2022/01/29 10:44:47;;;;;;;12.07;5.10;;;9.80;99.90;;;;;;5048647;28;20052;-57
2022/01/29 10:47:14;;;;;;;9.20;6.03;;;9.80;99.90;;;;;;5051879;28;20444;-59
2022/01/29 10:49:48;;;;;;;;;;;9.90;99.90;;;;;;5033579;28;20128;-57
2022/01/29 10:52:15;;;;;;;12.07;5.82;;;9.90;99.90;;;;;;5049618;28;19946;-56
2022/01/29 10:54:43;;;;;;;20.15;6.03;;;9.90;99.90;;;;;;5042730;28;20029;-56
2022/01/29 10:57:11;;;;;;;10.20;5.10;;;9.90;99.90;;;;;;5049310;28;20041;-54
2022/01/29 10:59:48;;;;;;;8.85;5.47;;;9.90;99.90;;;;;;5048266;28;20080;-57
2022/01/29 11:02:14;;;;;;;18.50;4.65;;;10.00;99.90;;;;;;5030252;28;20403;-60
2022/01/29 11:04:41;;;;;;;10.20;4.07;;;10.00;99.90;;;;;;5046253;28;20037;-59
2022/01/29 11:07:17;;;;;;;12.23;4.82;;;10.00;99.90;;;;;;5049873;28;20041;-58
2022/01/29 11:09:45;;;;;;;16.73;4.63;;;10.10;99.90;;;;;;5049148;28;20037;-62
2022/01/29 11:12:12;;;;;;;9.38;4.15;;;10.10;99.90;;;;;;5049687;28;20041;-60
2022/01/29 11:14:40;;;;;;;11.77;4.15;;;10.10;99.90;;;;;;5048656;28;20048;-60
2022/01/29 11:17:07;;;;;;;8.63;4.28;;;10.10;99.90;;;;;;5049426;28;20091;-59
2022/01/29 11:19:33;;;;;;;10.10;3.33;;;10.10;99.90;;;;;;5048589;28;20041;-58
2022/01/29 11:22:04;;;;;;;11.57;3.45;;;10.10;99.90;;;;;;5049240;28;20044;-58
2022/01/29 11:24:30;;;;;;;8.13;3.30;;;10.10;99.90;;;;;;5049340;28;20025;-59
2022/01/29 11:26:56;;;;;;;4.65;3.88;;;10.20;99.90;;;;;;5048600;28;20409;-60
2022/01/29 11:29:33;;;;;;;8.15;3.42;;;10.20;99.90;;;;;;5050604;28;20033;-58
2022/01/29 11:32:20;;;;;;;23.48;4.45;;;10.20;99.90;;;;;;5053634;28;20051;-58
2022/01/29 11:35:24;;;;;;;9.50;2.83;;;10.20;99.90;;;;;;5053405;28;20044;-58
2022/01/29 11:37:52;;;;;;;10.82;3.00;;;10.30;99.90;;;;;;5049764;28;20064;-58
2022/01/29 11:40:27;;;;;;;9.52;2.65;;;10.30;99.90;;;;;;5053547;28;20048;-59
2022/01/29 11:43:06;;;;;;;7.90;2.40;;;10.30;99.90;;;;;;5053366;28;20045;-59
2022/01/29 11:45:35;;;;;;;9.90;2.78;;;10.30;99.90;;;;;;5033769;28;20045;-59
2022/01/29 11:48:02;;;;;;;7.32;1.52;;;10.30;99.90;;;;;;5033801;28;20466;-59
2022/01/29 11:50:27;;;;;;;6.32;1.67;;;10.30;99.90;;;;;;5050773;28;20122;-59
2022/01/29 11:52:58;;;;;;;17.20;2.70;;;10.30;99.90;;;;;;5053195;28;20036;-57
2022/01/29 11:55:41;;;;;;;9.65;2.28;;;10.30;99.90;;;;;;5052408;28;20048;-59
2022/01/29 11:58:26;;;;;;;10.50;1.50;;;10.30;99.90;;;;;;5052496;28;20048;-59
2022/01/29 12:01:00;;;;;;;7.80;1.98;;;10.30;99.90;;;;;;5068367;28;20516;-57
2022/01/29 12:03:36;;;;;;;4.78;1.80;;;10.40;99.90;;;;;;5044718;28;20068;-58
2022/01/29 12:06:21;;;;;;;5.38;1.42;;;10.40;99.90;;;;;;5044333;28;20084;-59
2022/01/29 12:09:18;;;;;;;9.90;1.75;;;10.40;99.90;;;;;;5033276;28;20045;-60
2022/01/29 12:12:13;;;;;;;3.10;0.87;;;10.50;99.90;;;;;;5039283;28;20070;-60
2022/01/29 12:14:38;;;;;;;7.53;1.13;;;10.50;99.90;;;;;;5053097;28;20040;-61
2022/01/29 12:17:05;;;;;;;8.98;2.00;;;10.60;99.90;;;;;;5052090;28;20080;-60
2022/01/29 12:19:45;;;;;;;7.68;1.55;;;10.60;99.90;;;;;;5052587;28;20031;-60
2022/01/29 12:22:17;;;;;;;12.00;1.23;;;10.60;99.90;;;;;;5052817;28;20048;-60
2022/01/29 12:25:08;;;;;;;6.68;0.85;;;10.60;99.90;;;;;;5052057;28;20033;-60
2022/01/29 12:27:42;;;;;;;7.22;1.05;;;10.60;99.90;;;;;;5050187;28;20041;-57
2022/01/29 12:30:09;;;;;;;6.38;1.00;;;10.60;99.90;;;;;;5032545;28;20045;-60
2022/01/29 12:32:34;;;;;;;10.50;1.25;;;10.60;99.90;;;;;;5041877;28;20430;-59
2022/01/29 12:35:03;;;;;;;5.43;0.50;;;10.70;99.90;;;;;;5052084;28;20051;-60
2022/01/29 12:37:29;;;;;;;5.55;0.93;;;10.60;99.90;;;;;;5051730;28;20559;-60
2022/01/29 12:40:19;;;;;;;6.60;1.00;;;10.70;99.90;;;;;;5057058;28;20045;-59
2022/01/29 12:42:55;;;;;;;4.72;1.02;;;10.60;99.90;;;;;;5053405;28;20041;-60
2022/01/29 12:45:21;;;;;;;4.60;2.67;;;10.70;99.90;;;;;;5052231;28;20405;-59
2022/01/29 12:47:46;;;;;;;;;;;10.70;99.90;;;;;;5049211;28;20056;-57
2022/01/29 12:50:20;;;;;;;6.63;1.17;;;10.70;99.90;;;;;;5051611;28;20378;-58
2022/01/29 12:52:46;;;;;;;6.95;0.95;;;10.80;99.90;;;;;;5040450;28;20042;-60
2022/01/29 12:55:12;;;;;;;6.45;1.00;;;10.80;99.90;;;;;;5032185;28;20041;-57
2022/01/29 12:57:45;;;;;;;4.78;0.80;;;10.80;99.90;;;;;;5041725;28;20444;-56
2022/01/29 13:00:14;;;;;;;25.60;1.80;;;10.80;99.90;;;;;;5051037;28;20112;-59